sensor_id;sensor_type;location;lat;lon;timestamp;temperature;humidity
4406;DHT22;2216;53.806;11.598;2022-12-20T00:01:18;5.20;85.50
4406;DHT22;2216;53.806;11.598;2022-12-20T00:03:47;5.30;85.50
4406;DHT22;2216;53.806;11.598;2022-12-20T00:06:14;5.30;85.50
4406;DHT22;2216;53.806;11.598;2022-12-20T00:08:40;5.20;85.40
4406;DHT22;2216;53.806;11.598;2022-12-20T00:11:07;5.20;85.30
4406;DHT22;2216;53.806;11.598;2022-12-20T00:13:34;5.20;86.10
4406;DHT22;2216;53.806;11.598;2022-12-20T00:16:07;5.40;85.50
4406;DHT22;2216;53.806;11.598;2022-12-20T00:18:38;5.20;85.20
4406;DHT22;2216;53.806;11.598;2022-12-20T00:21:06;5.20;85.20
4406;DHT22;2216;53.806;11.598;2022-12-20T00:23:33;5.10;85.20
4406;DHT22;2216;53.806;11.598;2022-12-20T00:26:10;5.20;85.20
4406;DHT22;2216;53.806;11.598;2022-12-20T00:28:39;5.20;85.20
4406;DHT22;2216;53.806;11.598;2022-12-20T00:31:06;5.20;85.10
4406;DHT22;2216;53.806;11.598;2022-12-20T00:33:37;5.20;85.10
4406;DHT22;2216;53.806;11.598;2022-12-20T00:36:04;5.20;85.10
4406;DHT22;2216;53.806;11.598;2022-12-20T00:38:31;5.10;85.00
4406;DHT22;2216;53.806;11.598;2022-12-20T00:41:08;5.10;85.10
4406;DHT22;2216;53.806;11.598;2022-12-20T00:43:35;5.10;84.90
4406;DHT22;2216;53.806;11.598;2022-12-20T00:46:02;5.10;85.00
4406;DHT22;2216;53.806;11.598;2022-12-20T00:48:29;5.10;85.00
4406;DHT22;2216;53.806;11.598;2022-12-20T00:51:03;5.10;85.00
4406;DHT22;2216;53.806;11.598;2022-12-20T00:53:34;5.10;84.90
4406;DHT22;2216;53.806;11.598;2022-12-20T00:56:01;5.00;84.90
4406;DHT22;2216;53.806;11.598;2022-12-20T00:58:28;5.30;85.00
4406;DHT22;2216;53.806;11.598;2022-12-20T01:00:54;5.10;84.90
4406;DHT22;2216;53.806;11.598;2022-12-20T01:03:20;5.00;84.90
4406;DHT22;2216;53.806;11.598;2022-12-20T01:05:57;5.00;84.90
4406;DHT22;2216;53.806;11.598;2022-12-20T01:08:26;5.00;85.00
4406;DHT22;2216;53.806;11.598;2022-12-20T01:11:08;5.00;85.00
4406;DHT22;2216;53.806;11.598;2022-12-20T01:13:38;5.00;85.00
4406;DHT22;2216;53.806;11.598;2022-12-20T01:16:11;5.00;85.00
4406;DHT22;2216;53.806;11.598;2022-12-20T01:18:56;5.00;85.10
4406;DHT22;2216;53.806;11.598;2022-12-20T01:21:24;5.00;85.10
4406;DHT22;2216;53.806;11.598;2022-12-20T01:23:52;5.00;85.00
4406;DHT22;2216;53.806;11.598;2022-12-20T01:26:20;5.10;85.20
4406;DHT22;2216;53.806;11.598;2022-12-20T01:28:48;5.00;85.20
4406;DHT22;2216;53.806;11.598;2022-12-20T01:31:18;5.20;85.50
4406;DHT22;2216;53.806;11.598;2022-12-20T01:33:45;5.00;85.40
4406;DHT22;2216;53.806;11.598;2022-12-20T01:36:17;5.10;85.40
4406;DHT22;2216;53.806;11.598;2022-12-20T01:38:58;5.00;85.40
4406;DHT22;2216;53.806;11.598;2022-12-20T01:41:26;5.10;86.20
4406;DHT22;2216;53.806;11.598;2022-12-20T01:43:54;5.10;85.30
4406;DHT22;2216;53.806;11.598;2022-12-20T01:46:28;5.10;85.30
4406;DHT22;2216;53.806;11.598;2022-12-20T01:49:08;5.10;85.30
4406;DHT22;2216;53.806;11.598;2022-12-20T01:51:39;5.10;85.30
4406;DHT22;2216;53.806;11.598;2022-12-20T01:54:13;5.10;85.30
4406;DHT22;2216;53.806;11.598;2022-12-20T01:56:43;5.20;85.30
4406;DHT22;2216;53.806;11.598;2022-12-20T01:59:12;5.20;85.40
4406;DHT22;2216;53.806;11.598;2022-12-20T02:01:38;5.20;85.40
4406;DHT22;2216;53.806;11.598;2022-12-20T02:04:05;5.20;85.50
4406;DHT22;2216;53.806;11.598;2022-12-20T02:06:30;5.20;86.10
4406;DHT22;2216;53.806;11.598;2022-12-20T02:08:59;5.30;85.50
4406;DHT22;2216;53.806;11.598;2022-12-20T02:11:45;5.30;85.50
4406;DHT22;2216;53.806;11.598;2022-12-20T02:17:40;5.30;85.60
4406;DHT22;2216;53.806;11.598;2022-12-20T02:20:38;5.30;85.60
4406;DHT22;2216;53.806;11.598;2022-12-20T02:26:44;5.40;85.60
4406;DHT22;2216;53.806;11.598;2022-12-20T02:29:35;5.40;85.50
4406;DHT22;2216;53.806;11.598;2022-12-20T02:35:19;5.40;85.40
4406;DHT22;2216;53.806;11.598;2022-12-20T02:37:53;5.40;85.30
4406;DHT22;2216;53.806;11.598;2022-12-20T02:40:24;5.50;86.10
4406;DHT22;2216;53.806;11.598;2022-12-20T02:43:02;5.50;85.40
4406;DHT22;2216;53.806;11.598;2022-12-20T02:45:49;5.50;85.40
4406;DHT22;2216;53.806;11.598;2022-12-20T02:48:15;5.40;85.30
4406;DHT22;2216;53.806;11.598;2022-12-20T02:50:45;5.50;85.30
4406;DHT22;2216;53.806;11.598;2022-12-20T02:53:15;5.50;85.30
4406;DHT22;2216;53.806;11.598;2022-12-20T02:55:53;5.50;85.30
4406;DHT22;2216;53.806;11.598;2022-12-20T03:01:38;5.50;85.10
4406;DHT22;2216;53.806;11.598;2022-12-20T03:04:06;5.50;85.30
4406;DHT22;2216;53.806;11.598;2022-12-20T03:06:32;5.50;85.40
4406;DHT22;2216;53.806;11.598;2022-12-20T03:08:58;5.50;85.30
4406;DHT22;2216;53.806;11.598;2022-12-20T03:11:24;5.50;85.30
4406;DHT22;2216;53.806;11.598;2022-12-20T03:14:08;5.70;85.50
4406;DHT22;2216;53.806;11.598;2022-12-20T03:16:34;5.50;85.30
4406;DHT22;2216;53.806;11.598;2022-12-20T03:18:59;5.60;85.30
4406;DHT22;2216;53.806;11.598;2022-12-20T03:21:25;5.50;85.20
4406;DHT22;2216;53.806;11.598;2022-12-20T03:23:51;5.60;85.40
4406;DHT22;2216;53.806;11.598;2022-12-20T03:26:16;5.60;85.40
4406;DHT22;2216;53.806;11.598;2022-12-20T03:28:42;5.60;85.30
4406;DHT22;2216;53.806;11.598;2022-12-20T03:31:08;5.60;85.30
4406;DHT22;2216;53.806;11.598;2022-12-20T03:33:33;5.60;85.30
4406;DHT22;2216;53.806;11.598;2022-12-20T03:35:59;5.60;85.30
4406;DHT22;2216;53.806;11.598;2022-12-20T03:38:25;5.60;85.20
4406;DHT22;2216;53.806;11.598;2022-12-20T03:40:50;5.60;86.00
4406;DHT22;2216;53.806;11.598;2022-12-20T03:43:16;5.70;85.30
4406;DHT22;2216;53.806;11.598;2022-12-20T03:45:42;5.70;85.40
4406;DHT22;2216;53.806;11.598;2022-12-20T03:48:07;5.70;85.40
4406;DHT22;2216;53.806;11.598;2022-12-20T03:50:33;5.70;85.30
4406;DHT22;2216;53.806;11.598;2022-12-20T03:53:00;5.70;85.30
4406;DHT22;2216;53.806;11.598;2022-12-20T03:55:27;5.70;85.50
4406;DHT22;2216;53.806;11.598;2022-12-20T03:57:53;5.70;85.40
4406;DHT22;2216;53.806;11.598;2022-12-20T04:00:19;5.70;85.30
4406;DHT22;2216;53.806;11.598;2022-12-20T04:02:45;5.80;85.50
4406;DHT22;2216;53.806;11.598;2022-12-20T04:05:11;5.70;86.10
4406;DHT22;2216;53.806;11.598;2022-12-20T04:07:36;5.80;85.50
4406;DHT22;2216;53.806;11.598;2022-12-20T04:10:03;5.80;85.60
4406;DHT22;2216;53.806;11.598;2022-12-20T04:12:29;5.80;85.60
4406;DHT22;2216;53.806;11.598;2022-12-20T04:14:54;5.80;85.60
4406;DHT22;2216;53.806;11.598;2022-12-20T04:17:20;5.80;85.50
4406;DHT22;2216;53.806;11.598;2022-12-20T04:19:46;5.80;85.60
4406;DHT22;2216;53.806;11.598;2022-12-20T04:22:11;5.90;85.50
4406;DHT22;2216;53.806;11.598;2022-12-20T04:24:37;5.90;85.50
4406;DHT22;2216;53.806;11.598;2022-12-20T04:27:03;5.90;85.40
4406;DHT22;2216;53.806;11.598;2022-12-20T04:29:29;5.90;85.50
4406;DHT22;2216;53.806;11.598;2022-12-20T04:31:54;5.90;85.50
4406;DHT22;2216;53.806;11.598;2022-12-20T04:34:20;6.00;85.50
4406;DHT22;2216;53.806;11.598;2022-12-20T04:36:46;6.00;85.50
4406;DHT22;2216;53.806;11.598;2022-12-20T04:39:11;6.00;85.50
4406;DHT22;2216;53.806;11.598;2022-12-20T04:41:37;6.00;85.40
4406;DHT22;2216;53.806;11.598;2022-12-20T04:44:03;6.00;85.40
4406;DHT22;2216;53.806;11.598;2022-12-20T04:46:29;6.10;85.40
4406;DHT22;2216;53.806;11.598;2022-12-20T04:48:54;6.10;85.40
4406;DHT22;2216;53.806;11.598;2022-12-20T04:51:20;6.10;85.40
4406;DHT22;2216;53.806;11.598;2022-12-20T04:53:46;6.10;85.40
4406;DHT22;2216;53.806;11.598;2022-12-20T04:56:17;6.10;85.30
4406;DHT22;2216;53.806;11.598;2022-12-20T04:58:48;6.10;85.30
4406;DHT22;2216;53.806;11.598;2022-12-20T05:01:15;6.10;85.20
4406;DHT22;2216;53.806;11.598;2022-12-20T05:03:41;6.10;85.30
4406;DHT22;2216;53.806;11.598;2022-12-20T05:06:07;6.10;85.30
4406;DHT22;2216;53.806;11.598;2022-12-20T05:08:34;6.20;85.40
4406;DHT22;2216;53.806;11.598;2022-12-20T05:11:00;6.10;85.30
4406;DHT22;2216;53.806;11.598;2022-12-20T05:13:26;6.20;85.40
4406;DHT22;2216;53.806;11.598;2022-12-20T05:15:53;6.20;85.40
4406;DHT22;2216;53.806;11.598;2022-12-20T05:18:21;6.20;85.40
4406;DHT22;2216;53.806;11.598;2022-12-20T05:20:47;6.20;85.30
4406;DHT22;2216;53.806;11.598;2022-12-20T05:23:12;6.20;85.30
4406;DHT22;2216;53.806;11.598;2022-12-20T05:25:57;6.20;85.30
4406;DHT22;2216;53.806;11.598;2022-12-20T05:28:42;6.30;85.30
4406;DHT22;2216;53.806;11.598;2022-12-20T05:31:08;6.20;85.20
4406;DHT22;2216;53.806;11.598;2022-12-20T05:33:33;6.20;85.20
4406;DHT22;2216;53.806;11.598;2022-12-20T05:35:59;6.20;85.30
4406;DHT22;2216;53.806;11.598;2022-12-20T05:38:25;6.30;85.30
4406;DHT22;2216;53.806;11.598;2022-12-20T05:40:50;6.30;85.30
4406;DHT22;2216;53.806;11.598;2022-12-20T05:43:17;6.30;85.40
4406;DHT22;2216;53.806;11.598;2022-12-20T05:45:48;6.30;85.30
4406;DHT22;2216;53.806;11.598;2022-12-20T05:48:18;6.30;85.40
4406;DHT22;2216;53.806;11.598;2022-12-20T05:50:47;6.30;85.40
4406;DHT22;2216;53.806;11.598;2022-12-20T05:53:14;6.30;85.40
4406;DHT22;2216;53.806;11.598;2022-12-20T05:55:46;6.30;85.40
4406;DHT22;2216;53.806;11.598;2022-12-20T05:58:13;6.40;85.60
4406;DHT22;2216;53.806;11.598;2022-12-20T06:00:40;6.40;85.50
4406;DHT22;2216;53.806;11.598;2022-12-20T06:03:07;6.40;85.40
4406;DHT22;2216;53.806;11.598;2022-12-20T06:05:37;6.30;85.30
4406;DHT22;2216;53.806;11.598;2022-12-20T06:08:04;6.40;85.40
4406;DHT22;2216;53.806;11.598;2022-12-20T06:10:31;6.40;85.40
4406;DHT22;2216;53.806;11.598;2022-12-20T06:13:00;6.40;85.40
4406;DHT22;2216;53.806;11.598;2022-12-20T06:15:26;6.40;85.50
4406;DHT22;2216;53.806;11.598;2022-12-20T06:17:52;6.40;85.40
4406;DHT22;2216;53.806;11.598;2022-12-20T06:20:18;6.40;85.40
4406;DHT22;2216;53.806;11.598;2022-12-20T06:22:43;6.40;85.30
4406;DHT22;2216;53.806;11.598;2022-12-20T06:25:09;6.40;85.20
4406;DHT22;2216;53.806;11.598;2022-12-20T06:27:36;6.40;85.90
4406;DHT22;2216;53.806;11.598;2022-12-20T06:30:04;6.40;85.30
4406;DHT22;2216;53.806;11.598;2022-12-20T06:32:30;6.40;85.30
4406;DHT22;2216;53.806;11.598;2022-12-20T06:34:56;6.30;85.40
4406;DHT22;2216;53.806;11.598;2022-12-20T06:37:21;6.40;85.40
4406;DHT22;2216;53.806;11.598;2022-12-20T06:39:47;6.40;85.40
4406;DHT22;2216;53.806;11.598;2022-12-20T06:42:13;6.40;85.30
4406;DHT22;2216;53.806;11.598;2022-12-20T06:44:38;6.40;85.30
4406;DHT22;2216;53.806;11.598;2022-12-20T06:47:04;6.40;85.40
4406;DHT22;2216;53.806;11.598;2022-12-20T06:49:30;6.30;85.30
4406;DHT22;2216;53.806;11.598;2022-12-20T06:51:55;6.40;85.40
4406;DHT22;2216;53.806;11.598;2022-12-20T06:54:21;6.50;85.70
4406;DHT22;2216;53.806;11.598;2022-12-20T06:56:47;6.40;85.60
4406;DHT22;2216;53.806;11.598;2022-12-20T06:59:12;6.40;85.60
4406;DHT22;2216;53.806;11.598;2022-12-20T07:01:38;6.40;85.50
4406;DHT22;2216;53.806;11.598;2022-12-20T07:04:04;6.50;85.90
4406;DHT22;2216;53.806;11.598;2022-12-20T07:06:30;6.50;85.80
4406;DHT22;2216;53.806;11.598;2022-12-20T07:08:56;6.40;85.60
4406;DHT22;2216;53.806;11.598;2022-12-20T07:11:22;6.40;85.60
4406;DHT22;2216;53.806;11.598;2022-12-20T07:13:47;6.50;85.70
4406;DHT22;2216;53.806;11.598;2022-12-20T07:16:14;6.50;85.60
4406;DHT22;2216;53.806;11.598;2022-12-20T07:18:40;6.50;85.70
4406;DHT22;2216;53.806;11.598;2022-12-20T07:21:06;6.50;85.70
4406;DHT22;2216;53.806;11.598;2022-12-20T07:23:32;6.50;85.90
4406;DHT22;2216;53.806;11.598;2022-12-20T07:25:59;6.50;85.90
4406;DHT22;2216;53.806;11.598;2022-12-20T07:28:26;6.50;85.80
4406;DHT22;2216;53.806;11.598;2022-12-20T07:30:52;6.50;85.90
4406;DHT22;2216;53.806;11.598;2022-12-20T07:33:18;6.60;85.90
4406;DHT22;2216;53.806;11.598;2022-12-20T07:35:44;6.60;85.90
4406;DHT22;2216;53.806;11.598;2022-12-20T07:38:14;6.60;86.00
4406;DHT22;2216;53.806;11.598;2022-12-20T07:40:41;6.60;85.90
4406;DHT22;2216;53.806;11.598;2022-12-20T07:43:08;6.60;86.00
4406;DHT22;2216;53.806;11.598;2022-12-20T07:45:34;6.70;86.10
4406;DHT22;2216;53.806;11.598;2022-12-20T07:48:02;6.60;85.90
4406;DHT22;2216;53.806;11.598;2022-12-20T07:50:30;6.70;86.00
4406;DHT22;2216;53.806;11.598;2022-12-20T07:52:57;6.70;86.20
4406;DHT22;2216;53.806;11.598;2022-12-20T07:55:24;6.80;86.30
4406;DHT22;2216;53.806;11.598;2022-12-20T07:57:53;6.80;86.40
4406;DHT22;2216;53.806;11.598;2022-12-20T08:00:22;6.80;86.30
4406;DHT22;2216;53.806;11.598;2022-12-20T08:02:58;6.90;86.20
4406;DHT22;2216;53.806;11.598;2022-12-20T08:05:27;6.90;86.20
4406;DHT22;2216;53.806;11.598;2022-12-20T08:07:54;6.90;86.10
4406;DHT22;2216;53.806;11.598;2022-12-20T08:10:20;6.90;85.90
4406;DHT22;2216;53.806;11.598;2022-12-20T08:12:47;7.00;86.10
4406;DHT22;2216;53.806;11.598;2022-12-20T08:15:13;7.00;86.30
4406;DHT22;2216;53.806;11.598;2022-12-20T08:17:39;7.00;86.50
4406;DHT22;2216;53.806;11.598;2022-12-20T08:20:05;7.00;86.10
4406;DHT22;2216;53.806;11.598;2022-12-20T08:22:33;7.00;85.90
4406;DHT22;2216;53.806;11.598;2022-12-20T08:24:59;7.00;85.90
4406;DHT22;2216;53.806;11.598;2022-12-20T08:27:25;7.00;85.80
4406;DHT22;2216;53.806;11.598;2022-12-20T08:29:50;7.00;85.90
4406;DHT22;2216;53.806;11.598;2022-12-20T08:32:16;7.10;86.10
4406;DHT22;2216;53.806;11.598;2022-12-20T08:34:41;7.00;85.80
4406;DHT22;2216;53.806;11.598;2022-12-20T08:37:07;7.00;85.80
4406;DHT22;2216;53.806;11.598;2022-12-20T08:39:33;7.00;85.70
4406;DHT22;2216;53.806;11.598;2022-12-20T08:41:58;7.00;85.70
4406;DHT22;2216;53.806;11.598;2022-12-20T08:44:24;6.90;85.50
4406;DHT22;2216;53.806;11.598;2022-12-20T08:46:50;7.00;85.50
4406;DHT22;2216;53.806;11.598;2022-12-20T08:49:16;7.00;86.30
4406;DHT22;2216;53.806;11.598;2022-12-20T08:51:41;6.90;85.70
4406;DHT22;2216;53.806;11.598;2022-12-20T08:54:07;6.90;85.50
4406;DHT22;2216;53.806;11.598;2022-12-20T08:56:33;6.90;85.60
4406;DHT22;2216;53.806;11.598;2022-12-20T08:58:59;6.90;85.60
4406;DHT22;2216;53.806;11.598;2022-12-20T09:01:24;6.70;85.50
4406;DHT22;2216;53.806;11.598;2022-12-20T09:03:51;6.90;85.60
4406;DHT22;2216;53.806;11.598;2022-12-20T09:06:21;6.90;86.40
4406;DHT22;2216;53.806;11.598;2022-12-20T09:08:48;6.90;85.70
4406;DHT22;2216;53.806;11.598;2022-12-20T09:11:16;6.90;85.90
4406;DHT22;2216;53.806;11.598;2022-12-20T09:13:45;7.00;85.80
4406;DHT22;2216;53.806;11.598;2022-12-20T09:16:14;7.00;85.80
4406;DHT22;2216;53.806;11.598;2022-12-20T09:18:41;7.00;85.80
4406;DHT22;2216;53.806;11.598;2022-12-20T09:21:08;7.00;86.00
4406;DHT22;2216;53.806;11.598;2022-12-20T09:23:36;7.10;86.00
4406;DHT22;2216;53.806;11.598;2022-12-20T09:26:03;7.00;85.90
4406;DHT22;2216;53.806;11.598;2022-12-20T09:28:31;7.10;86.10
4406;DHT22;2216;53.806;11.598;2022-12-20T09:30:58;7.10;86.10
4406;DHT22;2216;53.806;11.598;2022-12-20T09:33:25;7.10;86.20
4406;DHT22;2216;53.806;11.598;2022-12-20T09:35:51;7.10;86.40
4406;DHT22;2216;53.806;11.598;2022-12-20T09:38:17;7.10;86.20
4406;DHT22;2216;53.806;11.598;2022-12-20T09:40:47;7.20;86.40
4406;DHT22;2216;53.806;11.598;2022-12-20T09:43:15;7.10;86.40
4406;DHT22;2216;53.806;11.598;2022-12-20T09:45:41;7.20;86.30
4406;DHT22;2216;53.806;11.598;2022-12-20T09:48:28;7.20;86.20
4406;DHT22;2216;53.806;11.598;2022-12-20T09:59:17;7.30;86.50
4406;DHT22;2216;53.806;11.598;2022-12-20T10:01:45;7.30;86.70
4406;DHT22;2216;53.806;11.598;2022-12-20T10:04:25;7.30;86.50
4406;DHT22;2216;53.806;11.598;2022-12-20T10:09:46;7.40;86.60
4406;DHT22;2216;53.806;11.598;2022-12-20T10:12:51;7.40;86.70
4406;DHT22;2216;53.806;11.598;2022-12-20T10:19:24;7.50;86.60
4406;DHT22;2216;53.806;11.598;2022-12-20T10:22:37;7.50;86.50
4406;DHT22;2216;53.806;11.598;2022-12-20T10:27:46;7.50;86.60
4406;DHT22;2216;53.806;11.598;2022-12-20T10:30:25;7.50;86.80
4406;DHT22;2216;53.806;11.598;2022-12-20T10:32:54;7.60;86.80
4406;DHT22;2216;53.806;11.598;2022-12-20T10:35:32;7.60;86.80
4406;DHT22;2216;53.806;11.598;2022-12-20T10:38:08;7.60;86.80
4406;DHT22;2216;53.806;11.598;2022-12-20T10:40:44;7.70;86.90
4406;DHT22;2216;53.806;11.598;2022-12-20T10:43:24;7.70;86.80
4406;DHT22;2216;53.806;11.598;2022-12-20T10:45:57;7.70;86.90
4406;DHT22;2216;53.806;11.598;2022-12-20T10:48:31;7.80;86.90
4406;DHT22;2216;53.806;11.598;2022-12-20T10:54:01;7.80;86.90
4406;DHT22;2216;53.806;11.598;2022-12-20T10:56:31;7.90;87.00
4406;DHT22;2216;53.806;11.598;2022-12-20T10:59:02;7.90;87.70
4406;DHT22;2216;53.806;11.598;2022-12-20T11:01:49;7.90;86.80
4406;DHT22;2216;53.806;11.598;2022-12-20T11:04:30;8.00;87.20
4406;DHT22;2216;53.806;11.598;2022-12-20T11:07:00;8.00;86.90
4406;DHT22;2216;53.806;11.598;2022-12-20T11:09:31;8.10;86.90
4406;DHT22;2216;53.806;11.598;2022-12-20T11:12:14;8.10;86.90
4406;DHT22;2216;53.806;11.598;2022-12-20T11:14:43;8.10;86.90
4406;DHT22;2216;53.806;11.598;2022-12-20T11:17:39;8.20;86.80
4406;DHT22;2216;53.806;11.598;2022-12-20T11:20:24;8.20;86.80
4406;DHT22;2216;53.806;11.598;2022-12-20T11:37:24;8.50;87.00
4406;DHT22;2216;53.806;11.598;2022-12-20T11:40:15;8.50;86.70
4406;DHT22;2216;53.806;11.598;2022-12-20T11:49:17;8.60;86.80
4406;DHT22;2216;53.806;11.598;2022-12-20T11:52:04;8.60;86.60
4406;DHT22;2216;53.806;11.598;2022-12-20T11:54:44;8.70;86.70
4406;DHT22;2216;53.806;11.598;2022-12-20T11:57:20;8.70;86.70
4406;DHT22;2216;53.806;11.598;2022-12-20T11:59:53;8.70;86.80
4406;DHT22;2216;53.806;11.598;2022-12-20T12:02:30;8.70;86.90
4406;DHT22;2216;53.806;11.598;2022-12-20T12:05:20;8.70;86.70
4406;DHT22;2216;53.806;11.598;2022-12-20T12:07:57;8.70;86.50
4406;DHT22;2216;53.806;11.598;2022-12-20T12:10:33;8.70;86.50
4406;DHT22;2216;53.806;11.598;2022-12-20T12:13:24;8.70;86.50
4406;DHT22;2216;53.806;11.598;2022-12-20T12:16:05;8.80;86.40
4406;DHT22;2216;53.806;11.598;2022-12-20T12:18:34;8.80;86.40
4406;DHT22;2216;53.806;11.598;2022-12-20T12:26:27;8.70;86.30
4406;DHT22;2216;53.806;11.598;2022-12-20T12:28:59;8.70;86.30
4406;DHT22;2216;53.806;11.598;2022-12-20T12:40:49;8.70;86.20
4406;DHT22;2216;53.806;11.598;2022-12-20T12:43:52;8.70;86.10
4406;DHT22;2216;53.806;11.598;2022-12-20T12:46:27;8.70;86.20
4406;DHT22;2216;53.806;11.598;2022-12-20T12:49:08;8.70;86.10
4406;DHT22;2216;53.806;11.598;2022-12-20T12:51:39;8.70;86.10
4406;DHT22;2216;53.806;11.598;2022-12-20T12:54:37;8.70;86.10
4406;DHT22;2216;53.806;11.598;2022-12-20T12:57:15;8.70;86.10
4406;DHT22;2216;53.806;11.598;2022-12-20T12:59:46;8.60;86.00
4406;DHT22;2216;53.806;11.598;2022-12-20T13:18:20;8.60;86.00
4406;DHT22;2216;53.806;11.598;2022-12-20T13:27:01;8.60;86.00
4406;DHT22;2216;53.806;11.598;2022-12-20T13:37:56;8.60;86.00
4406;DHT22;2216;53.806;11.598;2022-12-20T13:40:45;8.50;85.90
4406;DHT22;2216;53.806;11.598;2022-12-20T13:45:47;8.50;85.90
4406;DHT22;2216;53.806;11.598;2022-12-20T13:48:17;8.50;85.90
4406;DHT22;2216;53.806;11.598;2022-12-20T13:50:52;8.50;86.00
4406;DHT22;2216;53.806;11.598;2022-12-20T13:53:22;8.50;86.00
4406;DHT22;2216;53.806;11.598;2022-12-20T13:55:49;8.50;86.00
4406;DHT22;2216;53.806;11.598;2022-12-20T13:58:25;8.50;86.00
4406;DHT22;2216;53.806;11.598;2022-12-20T14:00:53;8.50;86.00
4406;DHT22;2216;53.806;11.598;2022-12-20T14:03:29;8.50;86.00
4406;DHT22;2216;53.806;11.598;2022-12-20T14:06:02;8.50;86.00
4406;DHT22;2216;53.806;11.598;2022-12-20T14:08:33;8.50;86.10
4406;DHT22;2216;53.806;11.598;2022-12-20T14:11:12;8.40;86.00
4406;DHT22;2216;53.806;11.598;2022-12-20T14:13:40;8.40;86.00
4406;DHT22;2216;53.806;11.598;2022-12-20T14:16:12;8.40;86.00
4406;DHT22;2216;53.806;11.598;2022-12-20T14:18:39;8.40;86.00
4406;DHT22;2216;53.806;11.598;2022-12-20T14:21:06;8.40;86.00
4406;DHT22;2216;53.806;11.598;2022-12-20T14:23:43;8.40;86.00
4406;DHT22;2216;53.806;11.598;2022-12-20T14:26:13;8.40;86.00
4406;DHT22;2216;53.806;11.598;2022-12-20T14:28:46;8.40;86.70
4406;DHT22;2216;53.806;11.598;2022-12-20T14:31:28;8.40;86.80
4406;DHT22;2216;53.806;11.598;2022-12-20T14:36:44;8.30;86.10
4406;DHT22;2216;53.806;11.598;2022-12-20T14:39:32;8.30;86.10
4406;DHT22;2216;53.806;11.598;2022-12-20T14:42:18;8.30;86.20
4406;DHT22;2216;53.806;11.598;2022-12-20T14:44:46;8.30;86.30
4406;DHT22;2216;53.806;11.598;2022-12-20T14:47:24;8.30;86.10
4406;DHT22;2216;53.806;11.598;2022-12-20T14:49:58;8.30;86.20
4406;DHT22;2216;53.806;11.598;2022-12-20T14:55:13;8.30;86.20
4406;DHT22;2216;53.806;11.598;2022-12-20T14:57:47;8.30;86.20
4406;DHT22;2216;53.806;11.598;2022-12-20T15:08:14;8.30;86.40
4406;DHT22;2216;53.806;11.598;2022-12-20T15:11:12;8.30;86.20
4406;DHT22;2216;53.806;11.598;2022-12-20T15:13:44;8.20;86.30
4406;DHT22;2216;53.806;11.598;2022-12-20T15:16:18;8.30;86.30
4406;DHT22;2216;53.806;11.598;2022-12-20T15:18:49;8.20;86.30
4406;DHT22;2216;53.806;11.598;2022-12-20T15:21:36;8.20;86.20
4406;DHT22;2216;53.806;11.598;2022-12-20T15:24:26;8.20;86.20
4406;DHT22;2216;53.806;11.598;2022-12-20T15:26:53;8.20;86.20
4406;DHT22;2216;53.806;11.598;2022-12-20T15:29:21;8.20;86.30
4406;DHT22;2216;53.806;11.598;2022-12-20T15:31:49;8.20;86.20
4406;DHT22;2216;53.806;11.598;2022-12-20T15:34:22;8.20;86.30
4406;DHT22;2216;53.806;11.598;2022-12-20T15:36:58;8.20;86.20
4406;DHT22;2216;53.806;11.598;2022-12-20T15:39:25;8.20;86.30
4406;DHT22;2216;53.806;11.598;2022-12-20T15:41:52;8.20;86.30
4406;DHT22;2216;53.806;11.598;2022-12-20T15:44:25;8.20;86.20
4406;DHT22;2216;53.806;11.598;2022-12-20T15:46:52;8.20;86.30
4406;DHT22;2216;53.806;11.598;2022-12-20T15:49:21;8.20;86.30
4406;DHT22;2216;53.806;11.598;2022-12-20T15:51:51;8.20;86.30
4406;DHT22;2216;53.806;11.598;2022-12-20T15:54:33;8.20;86.30
4406;DHT22;2216;53.806;11.598;2022-12-20T15:57:03;8.20;86.40
4406;DHT22;2216;53.806;11.598;2022-12-20T15:59:33;8.20;86.30
4406;DHT22;2216;53.806;11.598;2022-12-20T16:01:59;8.20;86.30
4406;DHT22;2216;53.806;11.598;2022-12-20T16:04:25;8.20;86.30
4406;DHT22;2216;53.806;11.598;2022-12-20T16:06:52;8.20;86.30
4406;DHT22;2216;53.806;11.598;2022-12-20T16:09:19;8.20;86.30
4406;DHT22;2216;53.806;11.598;2022-12-20T16:11:45;8.20;86.20
4406;DHT22;2216;53.806;11.598;2022-12-20T16:14:15;8.20;86.30
4406;DHT22;2216;53.806;11.598;2022-12-20T16:16:42;8.20;86.40
4406;DHT22;2216;53.806;11.598;2022-12-20T16:19:10;8.20;86.30
4406;DHT22;2216;53.806;11.598;2022-12-20T16:21:50;8.20;86.30
4406;DHT22;2216;53.806;11.598;2022-12-20T16:24:17;8.20;86.50
4406;DHT22;2216;53.806;11.598;2022-12-20T16:26:44;8.20;86.30
4406;DHT22;2216;53.806;11.598;2022-12-20T16:29:10;8.20;86.30
4406;DHT22;2216;53.806;11.598;2022-12-20T16:31:38;8.20;86.30
4406;DHT22;2216;53.806;11.598;2022-12-20T16:34:13;8.10;86.30
4406;DHT22;2216;53.806;11.598;2022-12-20T16:36:42;8.10;86.30
4406;DHT22;2216;53.806;11.598;2022-12-20T16:39:08;8.10;86.30
4406;DHT22;2216;53.806;11.598;2022-12-20T16:41:35;8.20;86.30
4406;DHT22;2216;53.806;11.598;2022-12-20T16:44:02;8.20;86.40
4406;DHT22;2216;53.806;11.598;2022-12-20T16:46:30;8.20;86.40
4406;DHT22;2216;53.806;11.598;2022-12-20T16:48:58;8.20;86.40
4406;DHT22;2216;53.806;11.598;2022-12-20T16:52:00;8.20;86.50
4406;DHT22;2216;53.806;11.598;2022-12-20T16:54:21;8.20;86.40
4406;DHT22;2216;53.806;11.598;2022-12-20T16:56:48;8.20;86.60
4406;DHT22;2216;53.806;11.598;2022-12-20T16:59:21;8.20;86.40
4406;DHT22;2216;53.806;11.598;2022-12-20T17:01:55;8.20;86.30
4406;DHT22;2216;53.806;11.598;2022-12-20T17:04:21;8.20;86.30
4406;DHT22;2216;53.806;11.598;2022-12-20T17:06:48;8.20;86.30
4406;DHT22;2216;53.806;11.598;2022-12-20T17:09:13;8.20;86.20
4406;DHT22;2216;53.806;11.598;2022-12-20T17:11:40;8.20;86.20
4406;DHT22;2216;53.806;11.598;2022-12-20T17:14:06;8.20;86.20
4406;DHT22;2216;53.806;11.598;2022-12-20T17:16:32;8.20;86.30
4406;DHT22;2216;53.806;11.598;2022-12-20T17:18:57;8.20;86.30
4406;DHT22;2216;53.806;11.598;2022-12-20T17:21:28;8.20;86.40
4406;DHT22;2216;53.806;11.598;2022-12-20T17:23:54;8.10;86.30
4406;DHT22;2216;53.806;11.598;2022-12-20T17:26:24;8.20;86.40
4406;DHT22;2216;53.806;11.598;2022-12-20T17:28:53;8.20;86.50
4406;DHT22;2216;53.806;11.598;2022-12-20T17:31:38;8.20;86.40
4406;DHT22;2216;53.806;11.598;2022-12-20T17:36:51;8.10;86.30
4406;DHT22;2216;53.806;11.598;2022-12-20T17:39:22;8.20;86.70
4406;DHT22;2216;53.806;11.598;2022-12-20T17:41:49;8.20;86.50
4406;DHT22;2216;53.806;11.598;2022-12-20T17:46:47;8.10;86.40
4406;DHT22;2216;53.806;11.598;2022-12-20T17:49:14;8.20;86.60
4406;DHT22;2216;53.806;11.598;2022-12-20T17:51:40;8.10;86.40
4406;DHT22;2216;53.806;11.598;2022-12-20T17:54:20;8.10;86.50
4406;DHT22;2216;53.806;11.598;2022-12-20T17:56:48;8.10;86.70
4406;DHT22;2216;53.806;11.598;2022-12-20T17:59:14;8.10;86.50
4406;DHT22;2216;53.806;11.598;2022-12-20T18:01:40;8.10;86.50
4406;DHT22;2216;53.806;11.598;2022-12-20T18:04:09;8.10;86.40
4406;DHT22;2216;53.806;11.598;2022-12-20T18:06:38;8.10;86.50
4406;DHT22;2216;53.806;11.598;2022-12-20T18:09:10;8.10;86.40
4406;DHT22;2216;53.806;11.598;2022-12-20T18:11:37;8.10;86.40
4406;DHT22;2216;53.806;11.598;2022-12-20T18:14:03;8.10;86.50
4406;DHT22;2216;53.806;11.598;2022-12-20T18:16:31;8.10;86.40
4406;DHT22;2216;53.806;11.598;2022-12-20T18:18:59;8.20;86.60
4406;DHT22;2216;53.806;11.598;2022-12-20T18:21:26;8.10;86.50
4406;DHT22;2216;53.806;11.598;2022-12-20T18:23:53;8.10;86.40